Time;durP1;ratioP1;P1;durP2;ratioP2;P2;SDS_P1;SDS_P2;PMS_P1;PMS_P2;Temp;Humidity;BMP_temperature;BMP_pressure;BME280_temperature;BME280_humidity;BME280_pressure;Samples;Min_cycle;Max_cycle;Signal;HPM_P1;HPM_P2
2022/06/09 00:01:39;;;;;;;2.45;1.90;;;;;;;21.51;48.54;98526.95;1665983;85;21006;-72
2022/06/09 00:04:16;;;;;;;1.67;1.57;;;;;;;21.52;48.65;98538.07;1672833;85;21567;-73
2022/06/09 00:06:55;;;;;;;2.75;1.52;;;;;;;21.51;48.69;98535.08;1649541;85;21517;-71
2022/06/09 00:09:31;;;;;;;3.87;1.75;;;;;;;21.48;48.72;98536.98;1683335;84;21500;-71
2022/06/09 00:11:57;;;;;;;3.40;1.82;;;;;;;21.43;48.49;98533.69;1658342;86;21139;-73
2022/06/09 00:14:24;;;;;;;2.67;1.82;;;;;;;21.43;48.49;98533.69;1658241;86;20942;-74
2022/06/09 00:16:51;;;;;;;1.77;1.50;;;;;;;21.41;48.93;98533.67;1658237;86;21021;-72
2022/06/09 00:19:18;;;;;;;4.10;1.92;;;;;;;21.33;49.42;98536.34;1657520;86;20939;-72
2022/06/09 00:21:46;;;;;;;2.55;1.90;;;;;;;21.33;49.42;98536.34;1658237;86;20935;-72
2022/06/09 00:24:12;;;;;;;2.62;1.65;;;;;;;21.30;49.21;98532.02;1658371;86;21241;-74
2022/06/09 00:26:39;;;;;;;4.03;1.87;;;;;;;21.26;49.32;98531.71;1658027;86;20954;-71
2022/06/09 00:29:06;;;;;;;2.85;2.10;;;;;;;21.23;49.39;98531.41;1675434;85;21058;-72
2022/06/09 00:31:32;;;;;;;3.25;1.55;;;;;;;21.19;49.52;98534.38;1675779;85;21514;-72
2022/06/09 00:33:59;;;;;;;2.95;1.82;;;;;;;21.16;49.64;98530.30;1666139;85;21434;-74
2022/06/09 00:36:28;;;;;;;3.15;1.70;;;;;;;21.14;49.78;98532.98;1681000;85;21664;-72
2022/06/09 00:38:57;;;;;;;2.50;1.72;;;;;;;21.10;49.91;98529.16;1688714;84;20995;-74
2022/06/09 00:41:25;;;;;;;2.20;1.95;;;;;;;21.08;50.02;98530.79;1713627;82;21081;-73
2022/06/09 00:43:53;;;;;;;3.62;2.45;;;;;;;21.04;50.01;98526.92;1743802;82;21021;-73
2022/06/09 00:46:24;;;;;;;3.20;2.35;;;;;;;21.04;50.01;98526.92;1744113;82;20880;-71
2022/06/09 00:48:54;;;;;;;1.77;1.67;;;;;;;21.02;50.35;98525.56;1744041;82;21236;-73
2022/06/09 00:51:35;;;;;;;2.22;2.02;;;;;;;21.01;50.48;98532.88;1742498;82;21096;-74
2022/06/09 00:54:14;;;;;;;3.40;2.02;;;;;;;20.99;50.57;98534.22;1710278;84;20940;-71
2022/06/09 00:56:51;;;;;;;3.60;1.98;;;;;;;20.94;50.71;98526.33;1710392;84;21498;-71
2022/06/09 00:59:20;;;;;;;3.17;1.95;;;;;;;20.90;50.86;98531.98;1710390;84;20871;-72
2022/06/09 01:01:46;;;;;;;2.40;2.00;;;;;;;20.86;50.95;98525.45;1695474;83;21257;-72
2022/06/09 01:04:13;;;;;;;5.03;1.95;;;;;;;20.85;51.10;98520.32;1713566;83;20903;-72
2022/06/09 01:06:51;;;;;;;3.75;2.30;;;;;;;20.84;51.20;98526.26;1659962;84;21011;-72
2022/06/09 01:09:22;;;;;;;3.72;1.77;;;;;;;20.82;51.36;98530.30;1713060;83;20894;-72
2022/06/09 01:11:51;;;;;;;2.10;1.90;;;;;;;20.78;51.48;98521.87;1713500;83;20943;-71
2022/06/09 01:14:21;;;;;;;3.30;2.02;;;;;;;20.76;51.57;98540.25;1714494;82;21137;-71
2022/06/09 01:17:02;;;;;;;4.05;2.10;;;;;;;20.72;51.61;98529.69;1743352;82;20891;-73
2022/06/09 01:19:57;;;;;;;4.40;2.00;;;;;;;20.68;51.74;98531.26;1744471;82;21004;-71
2022/06/09 01:22:43;;;;;;;2.17;1.98;;;;;;;20.61;51.90;98526.61;1743172;82;20987;-69
2022/06/09 01:25:45;;;;;;;3.95;2.30;;;;;;;20.59;52.17;98530.65;1732781;82;20939;-72
2022/06/09 01:28:50;;;;;;;2.40;2.20;;;;;;;20.55;52.24;98530.34;1713065;83;21531;-71
2022/06/09 01:31:29;;;;;;;2.52;1.75;;;;;;;20.49;52.37;98525.16;1713605;83;20860;-73
2022/06/09 01:34:10;;;;;;;2.20;2.10;;;;;;;20.42;52.50;98524.00;1714200;82;20978;-72
2022/06/09 01:36:42;;;;;;;2.72;2.35;;;;;;;20.39;52.64;98521.02;1712158;83;21564;-72
2022/06/09 01:39:09;;;;;;;2.40;2.20;;;;;;;20.35;52.80;98519.89;1707707;83;20975;-72
2022/06/09 01:41:36;;;;;;;4.08;2.05;;;;;;;20.29;52.92;98523.89;1712518;82;21236;-72
2022/06/09 01:44:03;;;;;;;1.80;1.70;;;;;;;20.28;53.03;98522.81;1740557;82;21018;-73
2022/06/09 01:46:33;;;;;;;2.27;1.77;;;;;;;20.27;53.09;98518.47;1693796;84;21532;-70
2022/06/09 01:49:11;;;;;;;3.45;2.15;;;;;;;20.24;53.17;98524.38;1702403;84;20996;-72
2022/06/09 01:51:41;;;;;;;3.00;1.95;;;;;;;20.22;53.25;98519.73;1701814;84;21506;-73
2022/06/09 01:54:30;;;;;;;4.28;2.00;;;;;;;20.21;53.35;98522.14;1707674;82;21214;-72
2022/06/09 01:57:07;;;;;;;1.80;1.70;;;;;;;20.18;53.45;98521.30;1715040;83;20927;-71
2022/06/09 01:59:48;;;;;;;2.50;1.95;;;;;;;20.12;53.57;98511.54;1706618;84;20991;-72
2022/06/09 02:02:30;;;;;;;2.45;2.25;;;;;;;20.08;53.69;98519.85;1706645;84;21200;-72
2022/06/09 02:05:01;;;;;;;2.22;1.82;;;;;;;20.06;53.80;98522.81;1706733;84;21191;-72
2022/06/09 02:07:30;;;;;;;2.10;1.90;;;;;;;20.03;53.90;98521.15;1715730;82;21862;-72
2022/06/09 02:09:56;;;;;;;4.20;2.02;;;;;;;20.02;54.03;98520.33;1720361;82;21406;-73
2022/06/09 02:12:24;;;;;;;2.10;1.87;;;;;;;20.01;54.06;98526.81;1720424;82;21502;-71
2022/06/09 02:14:55;;;;;;;2.55;2.12;;;;;;;20.01;54.12;98526.81;1720540;82;20974;-74
2022/06/09 02:17:23;;;;;;;2.33;1.85;;;;;;;20.00;54.08;98525.17;1711553;82;20994;-72
2022/06/09 02:19:49;;;;;;;3.05;2.10;;;;;;;20.00;54.06;98524.34;1720409;83;21145;-73
2022/06/09 02:22:16;;;;;;;1.85;1.75;;;;;;;20.00;54.08;98523.00;1720349;82;20900;-72
2022/06/09 02:24:43;;;;;;;2.58;1.95;;;;;;;20.00;54.15;98527.87;1720507;82;20943;-72
2022/06/09 02:27:10;;;;;;;2.20;2.00;;;;;;;20.01;54.20;98532.73;1718504;82;20919;-72
2022/06/09 02:29:37;;;;;;;2.65;1.67;;;;;;;20.01;54.17;98530.05;1720457;82;20986;-72
2022/06/09 02:32:05;;;;;;;3.90;1.92;;;;;;;20.03;54.23;98534.12;1720508;83;21570;-72
2022/06/09 02:34:31;;;;;;;3.62;1.92;;;;;;;20.06;54.21;98535.49;1720442;83;21006;-71
2022/06/09 02:36:58;;;;;;;2.35;2.15;;;;;;;20.10;54.15;98532.58;1712559;83;20968;-72
2022/06/09 02:39:24;;;;;;;1.82;1.72;;;;;;;20.12;54.08;98538.01;1680354;84;20995;-72
2022/06/09 02:41:51;;;;;;;2.95;1.75;;;;;;;20.16;54.02;98536.95;1674016;85;21042;-72
2022/06/09 02:44:18;;;;;;;3.27;2.10;;;;;;;20.19;53.99;98528.34;1674020;85;21867;-72
2022/06/09 02:46:45;;;;;;;3.12;1.95;;;;;;;20.23;53.80;98532.18;1701293;82;20939;-73
2022/06/09 02:49:11;;;;;;;4.60;1.95;;;;;;;20.28;53.59;98534.96;1706745;84;21035;-71
2022/06/09 02:51:42;;;;;;;2.20;1.82;;;;;;;20.35;53.50;98536.09;1706609;84;20963;-72
2022/06/09 02:54:12;;;;;;;3.02;1.92;;;;;;;20.41;53.48;98535.90;1706751;84;20994;-71
2022/06/09 02:56:42;;;;;;;2.65;2.00;;;;;;;20.46;53.44;98531.89;1707867;84;21311;-72
2022/06/09 02:59:10;;;;;;;3.35;1.92;;;;;;;20.55;53.19;98530.87;1707906;83;20950;-72
2022/06/09 03:01:37;;;;;;;1.90;1.80;;;;;;;20.63;52.81;98530.40;1708038;84;21047;-71
2022/06/09 03:04:05;;;;;;;3.72;1.90;;;;;;;20.71;52.54;98530.75;1696822;84;21488;-72
2022/06/09 03:06:32;;;;;;;2.22;1.95;;;;;;;20.81;52.32;98532.70;1708921;82;21020;-71
2022/06/09 03:08:58;;;;;;;6.87;1.80;;;;;;;20.92;52.10;98526.31;1720386;83;21595;-71
2022/06/09 03:11:27;;;;;;;2.35;2.08;;;;;;;21.03;51.92;98532.61;1714808;82;20844;-70
2022/06/09 03:13:53;;;;;;;2.20;1.87;;;;;;;21.15;51.66;98527.84;1708297;83;20887;-71
2022/06/09 03:16:19;;;;;;;1.98;1.77;;;;;;;21.25;51.44;98534.66;1714251;82;20946;-72
2022/06/09 03:18:46;;;;;;;4.37;1.67;;;;;;;21.50;51.03;98536.99;1720274;82;20940;-72
2022/06/09 03:21:13;;;;;;;2.70;1.82;;;;;;;21.50;51.03;98536.99;1719174;83;21158;-73
2022/06/09 03:23:40;;;;;;;3.15;1.82;;;;;;;21.68;50.70;98539.77;1720428;83;20895;-73
2022/06/09 03:26:07;;;;;;;2.33;1.90;;;;;;;21.85;50.34;98540.38;1714035;82;20995;-73
2022/06/09 03:28:35;;;;;;;4.12;2.62;;;;;;;22.05;49.91;98541.84;1717021;82;20979;-73
2022/06/09 03:31:02;;;;;;;2.22;1.90;;;;;;;22.27;49.44;98539.44;1720403;83;20943;-73
2022/06/09 03:33:29;;;;;;;2.50;2.12;;;;;;;22.49;49.10;98539.49;1720457;83;21127;-74
2022/06/09 03:35:56;;;;;;;2.52;2.33;;;;;;;22.74;48.39;98544.13;1718786;82;20876;-73
2022/06/09 03:38:22;;;;;;;2.37;1.92;;;;;;;23.07;47.71;98542.20;1721041;82;20951;-73
2022/06/09 03:40:50;;;;;;;4.87;2.02;;;;;;;23.56;46.92;98541.06;1723856;83;20869;-72
2022/06/09 03:43:16;;;;;;;4.37;2.12;;;;;;;24.09;46.13;98536.77;1723793;83;20911;-74
2022/06/09 03:45:43;;;;;;;3.75;2.00;;;;;;;24.64;45.06;98536.95;1717374;82;21241;-73
2022/06/09 03:48:10;;;;;;;2.15;1.90;;;;;;;25.12;44.07;98535.23;1712234;83;20943;-74
2022/06/09 03:50:36;;;;;;;4.28;2.02;;;;;;;25.64;42.90;98542.59;1712289;83;21049;-73
2022/06/09 03:53:03;;;;;;;2.22;1.77;;;;;;;26.05;42.15;98536.89;1712256;83;20913;-73
2022/06/09 03:55:30;;;;;;;6.67;2.35;;;;;;;26.56;40.98;98538.94;1712562;82;21009;-72
2022/06/09 03:57:56;;;;;;;2.65;1.80;;;;;;;26.95;40.06;98535.33;1723828;83;21267;-74
2022/06/09 04:00:26;;;;;;;3.80;2.25;;;;;;;27.31;39.22;98536.86;1723847;83;20979;-73
2022/06/09 04:02:53;;;;;;;3.37;1.90;;;;;;;27.58;38.71;98538.30;1723769;82;20947;-74
2022/06/09 04:05:20;;;;;;;2.12;1.92;;;;;;;27.87;38.01;98535.25;1722500;82;20856;-74
2022/06/09 04:07:47;;;;;;;5.95;2.10;;;;;;;28.16;37.57;98533.80;1711790;83;20936;-73
2022/06/09 04:10:19;;;;;;;2.20;1.98;;;;;;;28.50;37.02;98533.30;1707868;84;21192;-72
2022/06/09 04:12:45;;;;;;;2.47;1.87;;;;;;;28.97;36.23;98529.17;1707973;84;20939;-73
2022/06/09 04:15:12;;;;;;;2.15;2.02;;;;;;;29.35;35.51;98537.25;1707809;82;20951;-73
2022/06/09 04:17:39;;;;;;;2.27;1.57;;;;;;;29.64;34.67;98533.98;1711573;83;20983;-71
2022/06/09 04:20:09;;;;;;;4.45;2.05;;;;;;;29.72;34.14;98536.51;1712285;83;20994;-72
2022/06/09 04:22:36;;;;;;;2.62;1.90;;;;;;;29.96;34.01;98538.28;1712240;83;21142;-73
2022/06/09 04:25:03;;;;;;;2.60;1.90;;;;;;;30.36;33.45;98538.48;1711766;82;20994;-71
2022/06/09 04:27:29;;;;;;;2.92;2.10;;;;;;;30.69;32.86;98536.63;1718971;82;20899;-73
2022/06/09 04:29:57;;;;;;;2.02;1.80;;;;;;;30.90;32.55;98536.19;1723806;83;20951;-73
2022/06/09 04:32:25;;;;;;;1.80;1.70;;;;;;;31.29;31.86;98534.59;1723395;82;21434;-73
2022/06/09 04:34:51;;;;;;;5.95;2.00;;;;;;;31.59;30.95;98530.81;1723932;83;21698;-72
2022/06/09 04:37:18;;;;;;;2.55;1.87;;;;;;;31.86;30.68;98529.52;1705054;82;21457;-71
2022/06/09 04:39:45;;;;;;;3.30;2.05;;;;;;;32.12;30.21;98519.20;1736918;82;21474;-72
2022/06/09 04:42:11;;;;;;;4.83;1.92;;;;;;;32.42;29.55;98517.78;1744028;82;21141;-73
2022/06/09 04:44:38;;;;;;;2.90;1.92;;;;;;;32.58;29.30;98516.06;1744104;82;20911;-72
2022/06/09 04:47:06;;;;;;;5.22;2.02;;;;;;;32.86;29.23;98523.98;1743981;82;22126;-71
2022/06/09 04:49:32;;;;;;;7.83;2.10;;;;;;;33.07;28.73;98527.52;1733158;82;20951;-69
2022/06/09 04:51:59;;;;;;;2.35;1.75;;;;;;;33.29;28.50;98522.19;1714548;83;20872;-72
2022/06/09 04:54:26;;;;;;;3.40;1.98;;;;;;;33.61;27.87;98522.70;1711966;83;21011;-73
2022/06/09 04:56:52;;;;;;;2.60;1.87;;;;;;;33.89;27.39;98527.78;1712304;83;20900;-74
2022/06/09 04:59:19;;;;;;;3.10;2.05;;;;;;;34.06;27.03;98530.88;1736865;82;21621;-71
2022/06/09 05:01:46;;;;;;;5.83;2.05;;;;;;;34.18;26.82;98527.31;1740316;82;20959;-72
2022/06/09 05:04:14;;;;;;;6.67;2.10;;;;;;;34.32;26.55;98524.40;1744117;82;21512;-74
2022/06/09 05:06:42;;;;;;;7.90;2.20;;;;;;;34.66;25.93;98526.63;1723140;82;20951;-74
2022/06/09 05:09:09;;;;;;;3.05;2.47;;;;;;;34.65;26.01;98529.75;1720355;82;20919;-74
2022/06/09 05:11:35;;;;;;;4.55;3.08;;;;;;;34.80;25.83;98530.95;1712106;83;21244;-72
2022/06/09 05:14:03;;;;;;;3.47;2.22;;;;;;;35.18;25.06;98534.81;1712056;83;20911;-72
2022/06/09 05:16:30;;;;;;;3.02;1.92;;;;;;;35.63;24.73;98528.91;1713974;82;20959;-73
2022/06/09 05:18:57;;;;;;;5.90;2.10;;;;;;;35.93;24.41;98530.60;1711978;83;20868;-72
2022/06/09 05:21:23;;;;;;;2.33;2.10;;;;;;;36.23;23.89;98524.83;1712117;83;20947;-73
2022/06/09 05:23:49;;;;;;;2.67;2.47;;;;;;;36.34;23.83;98533.37;1724918;82;21277;-72
2022/06/09 05:26:16;;;;;;;6.87;2.20;;;;;;;36.29;23.80;98523.39;1730378;82;20928;-73
2022/06/09 05:28:42;;;;;;;3.12;1.80;;;;;;;36.70;23.39;98523.29;1710978;83;21117;-73
2022/06/09 05:31:11;;;;;;;4.75;2.00;;;;;;;37.17;23.19;98525.82;1730350;82;21019;-73
2022/06/09 05:33:37;;;;;;;3.10;2.37;;;;;;;37.61;23.00;98529.80;1743920;82;21560;-73
2022/06/09 05:36:06;;;;;;;3.87;2.58;;;;;;;37.66;22.75;98522.55;1714942;82;21780;-73
2022/06/09 05:46:42;;;;;;;3.80;2.80;;;;;;;37.66;22.80;98536.43;1720104;82;21531;-75
2022/06/09 05:49:09;;;;;;;2.40;2.15;;;;;;;38.17;22.22;98531.91;1712172;83;21232;-72
2022/06/09 05:51:37;;;;;;;1.92;1.72;;;;;;;38.45;21.95;98531.52;1712986;82;20939;-69
2022/06/09 05:54:04;;;;;;;4.95;2.58;;;;;;;38.80;21.53;98536.95;1713273;83;21542;-72
2022/06/09 05:56:30;;;;;;;2.55;2.27;;;;;;;38.79;21.34;98545.11;1714587;82;21068;-69
2022/06/09 05:58:57;;;;;;;6.95;2.83;;;;;;;38.83;21.19;98539.56;1722519;82;21038;-70
2022/06/09 06:01:23;;;;;;;2.75;2.47;;;;;;;38.89;21.39;98538.86;1720541;82;21263;-71
2022/06/09 06:03:51;;;;;;;5.97;2.22;;;;;;;39.29;21.41;98542.28;1711632;83;21046;-77
2022/06/09 06:06:36;;;;;;;2.37;2.02;;;;;;;39.93;20.54;98540.91;1713171;82;20923;-74
2022/06/09 06:09:08;;;;;;;8.70;2.00;;;;;;;40.60;20.22;98533.59;1723390;83;21059;-72
2022/06/09 06:11:37;;;;;;;3.45;2.02;;;;;;;41.05;20.24;98534.98;1723421;83;21548;-71
2022/06/09 06:14:04;;;;;;;3.02;2.30;;;;;;;41.33;19.44;98534.29;1717688;82;21126;-73
2022/06/09 06:16:31;;;;;;;3.27;2.45;;;;;;;41.07;19.42;98537.58;1715511;83;20984;-72
2022/06/09 06:18:59;;;;;;;8.25;2.90;;;;;;;40.95;19.21;98532.96;1706552;82;20858;-73
2022/06/09 06:21:25;;;;;;;4.08;2.58;;;;;;;40.64;19.28;98536.61;1713966;82;20998;-72
2022/06/09 06:23:53;;;;;;;2.83;2.30;;;;;;;40.57;19.63;98538.58;1709998;82;20938;-75
2022/06/09 06:26:20;;;;;;;2.92;2.10;;;;;;;40.70;19.68;98541.81;1706597;82;21878;-73
2022/06/09 06:28:46;;;;;;;4.17;2.08;;;;;;;40.31;19.64;98548.55;1714677;83;21480;-75
2022/06/09 06:31:14;;;;;;;3.70;2.27;;;;;;;40.04;20.32;98540.42;1713839;83;20950;-75
2022/06/09 06:33:41;;;;;;;6.15;2.33;;;;;;;40.43;20.13;98539.86;1715849;83;20946;-77
2022/06/09 06:36:08;;;;;;;3.95;2.50;;;;;;;40.55;20.06;98540.93;1716144;83;20945;-76
2022/06/09 06:38:37;;;;;;;2.90;2.17;;;;;;;40.75;19.62;98540.84;1716112;83;21180;-74
2022/06/09 06:41:08;;;;;;;4.40;2.55;;;;;;;40.84;19.53;98539.86;1710184;82;20906;-74
2022/06/09 06:43:36;;;;;;;5.75;2.47;;;;;;;40.92;19.78;98541.52;1705875;84;20974;-74
2022/06/09 06:46:02;;;;;;;4.70;2.40;;;;;;;41.54;19.75;98544.86;1718190;81;21049;-73
2022/06/09 06:48:30;;;;;;;6.22;2.65;;;;;;;41.93;19.03;98537.13;1719018;81;20888;-73
2022/06/09 06:50:58;;;;;;;3.05;2.77;;;;;;;42.23;18.88;98541.69;1728700;82;21299;-72
2022/06/09 06:53:25;;;;;;;5.97;2.25;;;;;;;42.22;18.88;98536.69;1717968;81;20933;-77
2022/06/09 06:55:52;;;;;;;3.22;2.27;;;;;;;42.52;17.81;98538.22;1721804;81;21013;-75
2022/06/09 06:58:18;;;;;;;4.28;2.67;;;;;;;42.44;17.80;98548.03;1725840;81;20948;-74
2022/06/09 07:00:45;;;;;;;2.80;2.60;;;;;;;42.34;17.93;98541.07;1721295;81;21072;-75
2022/06/09 07:03:12;;;;;;;5.25;2.25;;;;;;;42.05;18.56;98548.67;1719876;83;21282;-76
2022/06/09 07:05:39;;;;;;;3.67;2.37;;;;;;;42.63;18.02;98549.56;1719716;83;20946;-75
2022/06/09 07:08:08;;;;;;;3.12;2.67;;;;;;;43.40;17.46;98544.23;1719842;83;20958;-75
2022/06/09 07:10:36;;;;;;;2.80;2.50;;;;;;;44.16;16.48;98545.44;1719889;83;21908;-75
2022/06/09 07:13:03;;;;;;;3.45;2.33;;;;;;;43.73;16.40;98550.40;1719965;83;20955;-76
2022/06/09 07:15:30;;;;;;;3.55;2.47;;;;;;;43.70;16.58;98547.79;1719954;83;21255;-76
2022/06/09 07:17:58;;;;;;;3.98;2.22;;;;;;;43.36;16.78;98547.64;1719906;83;21500;-75
2022/06/09 07:20:24;;;;;;;2.90;2.60;;;;;;;42.90;16.72;98542.27;1719818;83;21058;-75
2022/06/09 07:22:53;;;;;;;3.65;2.22;;;;;;;42.52;17.22;98536.81;1719894;83;20974;-75
2022/06/09 07:25:20;;;;;;;2.83;2.22;;;;;;;42.67;17.44;98548.16;1719886;83;20879;-76
2022/06/09 07:27:48;;;;;;;4.58;1.72;;;;;;;42.42;16.50;98543.42;1719850;83;21280;-74
2022/06/09 07:30:15;;;;;;;2.60;2.02;;;;;;;41.79;17.17;98542.12;1719874;83;21548;-75
2022/06/09 07:32:41;;;;;;;4.90;2.33;;;;;;;41.97;15.83;98551.87;1719885;83;20907;-75
2022/06/09 07:35:09;;;;;;;2.45;1.90;;;;;;;41.41;16.69;98545.05;1719856;83;20922;-75
2022/06/09 07:37:36;;;;;;;2.20;1.80;;;;;;;41.66;17.09;98547.87;1719888;83;20939;-75
2022/06/09 07:40:05;;;;;;;3.77;1.98;;;;;;;41.94;16.58;98548.48;1714807;83;21837;-74
2022/06/09 07:42:33;;;;;;;3.33;2.12;;;;;;;41.97;16.44;98552.67;1706577;84;20987;-75
2022/06/09 07:44:59;;;;;;;2.50;2.05;;;;;;;42.18;16.49;98548.48;1706674;84;20861;-75
2022/06/09 07:47:25;;;;;;;2.30;1.85;;;;;;;42.59;16.37;98539.02;1706500;84;20948;-75
2022/06/09 07:49:52;;;;;;;3.47;2.22;;;;;;;43.29;15.80;98546.87;1706622;84;20986;-77
2022/06/09 07:52:19;;;;;;;2.70;1.80;;;;;;;43.22;15.91;98542.73;1706566;84;21638;-77
2022/06/09 07:54:46;;;;;;;3.50;1.77;;;;;;;42.58;15.66;98555.58;1706605;84;20998;-74
2022/06/09 07:57:12;;;;;;;2.37;1.98;;;;;;;41.56;15.62;98573.78;1706610;84;21551;-75
2022/06/09 07:59:39;;;;;;;3.08;1.82;;;;;;;40.44;16.43;98554.00;1706753;84;20999;-76
2022/06/09 08:02:05;;;;;;;4.50;1.67;;;;;;;40.17;17.36;98557.61;1706617;84;20903;-76
2022/06/09 08:04:33;;;;;;;3.22;1.82;;;;;;;40.92;16.75;98560.23;1706599;84;21850;-75
2022/06/09 08:06:59;;;;;;;2.20;1.75;;;;;;;41.15;15.31;98554.53;1707173;84;21402;-74
2022/06/09 08:09:27;;;;;;;4.15;1.70;;;;;;;41.41;15.47;98551.22;1707316;84;20935;-75
2022/06/09 08:11:54;;;;;;;2.08;1.77;;;;;;;42.16;14.73;98546.67;1707784;84;21051;-75
2022/06/09 08:14:20;;;;;;;2.25;1.82;;;;;;;42.13;15.01;98545.30;1707397;84;20939;-75
2022/06/09 08:16:47;;;;;;;2.00;1.77;;;;;;;40.65;16.66;98552.13;1710109;84;21633;-75
2022/06/09 08:19:14;;;;;;;2.02;1.80;;;;;;;38.95;17.82;98555.20;1709245;84;20944;-75
2022/06/09 08:21:41;;;;;;;4.33;2.00;;;;;;;37.31;18.86;98559.95;1706722;84;20951;-76
2022/06/09 08:24:08;;;;;;;2.83;1.92;;;;;;;35.71;20.01;98561.13;1706751;84;20983;-75
2022/06/09 08:26:34;;;;;;;2.20;1.87;;;;;;;34.43;20.56;98567.52;1706741;84;20975;-74
2022/06/09 08:29:01;;;;;;;1.92;1.50;;;;;;;34.40;21.09;98566.25;1706695;84;21647;-75
2022/06/09 08:31:28;;;;;;;3.70;1.60;;;;;;;34.08;21.92;98572.16;1706747;84;20919;-76
2022/06/09 08:33:55;;;;;;;5.60;2.00;;;;;;;33.60;23.09;98568.55;1706806;84;20983;-74
2022/06/09 08:36:22;;;;;;;5.30;1.82;;;;;;;34.03;23.41;98562.70;1702209;84;21563;-75
2022/06/09 08:38:48;;;;;;;3.30;1.95;;;;;;;35.57;22.19;98570.42;1706773;84;20947;-75
2022/06/09 08:41:41;;;;;;;2.35;2.12;;;;;;;36.42;20.95;98562.22;1706708;83;21803;-75
2022/06/09 08:44:31;;;;;;;3.83;1.90;;;;;;;36.64;20.27;98564.91;1706906;84;21050;-76
2022/06/09 08:47:34;;;;;;;4.55;1.67;;;;;;;36.38;19.31;98557.77;1706717;84;20996;-76
2022/06/09 08:50:15;;;;;;;2.47;1.80;;;;;;;37.13;18.97;98549.89;1706811;84;20865;-74
2022/06/09 08:53:08;;;;;;;2.67;1.75;;;;;;;38.78;17.36;98562.95;1706792;84;21475;-75
2022/06/09 08:55:40;;;;;;;2.25;1.80;;;;;;;39.74;16.74;98577.33;1706722;84;21100;-75
2022/06/09 08:58:16;;;;;;;1.80;1.40;;;;;;;40.28;15.51;98559.08;1706655;84;20966;-75
2022/06/09 09:00:48;;;;;;;2.87;1.67;;;;;;;40.53;15.58;98558.05;1706429;84;20939;-76
2022/06/09 09:03:23;;;;;;;1.85;1.75;;;;;;;41.07;15.27;98555.70;1706844;84;20999;-76
2022/06/09 09:06:00;;;;;;;2.20;1.80;;;;;;;40.86;15.54;98562.57;1706792;84;21042;-77
2022/06/09 09:08:27;;;;;;;2.02;1.82;;;;;;;40.18;16.24;98556.41;1706734;84;21243;-75
2022/06/09 09:11:00;;;;;;;2.72;2.17;;;;;;;40.73;15.96;98574.48;1706644;84;21476;-75
2022/06/09 09:13:59;;;;;;;2.10;1.65;;;;;;;41.17;15.26;98566.09;1706668;84;20852;-75
2022/06/09 09:16:37;;;;;;;3.17;1.50;;;;;;;41.71;14.88;98554.45;1706728;84;20995;-75
2022/06/09 09:19:26;;;;;;;3.08;1.50;;;;;;;42.42;13.64;98548.23;1706667;84;20911;-75
2022/06/09 09:22:19;;;;;;;2.58;2.17;;;;;;;42.75;13.22;98558.13;1706616;84;21835;-76
2022/06/09 09:25:14;;;;;;;2.75;1.40;;;;;;;43.06;13.46;98548.81;1706738;84;21051;-76
2022/06/09 09:27:59;;;;;;;1.72;1.62;;;;;;;43.01;13.05;98554.23;1707173;84;20996;-75
2022/06/09 09:30:54;;;;;;;3.25;1.87;;;;;;;42.44;13.51;98541.63;1707004;84;21021;-75
2022/06/09 09:33:21;;;;;;;1.77;1.67;;;;;;;41.89;13.86;98561.45;1707029;84;20860;-75
2022/06/09 09:35:52;;;;;;;3.10;1.70;;;;;;;42.02;14.14;98541.69;1706630;84;22073;-75
2022/06/09 09:38:19;;;;;;;1.90;1.80;;;;;;;43.11;13.86;98548.38;1706718;84;20935;-77
2022/06/09 09:40:50;;;;;;;3.45;1.90;;;;;;;42.73;13.60;98546.55;1708716;83;20911;-75
2022/06/09 09:43:21;;;;;;;1.82;1.70;;;;;;;40.89;15.08;98553.45;1712021;83;21545;-75
2022/06/09 09:45:54;;;;;;;1.87;1.72;;;;;;;39.82;15.84;98549.77;1712086;83;21149;-74
2022/06/09 09:48:27;;;;;;;2.25;1.60;;;;;;;39.10;16.85;98544.45;1712038;83;21903;-75
2022/06/09 09:51:05;;;;;;;7.78;1.90;;;;;;;39.21;16.83;98534.27;1712057;83;21040;-74
2022/06/09 09:53:50;;;;;;;2.42;1.80;;;;;;;39.40;16.68;98549.34;1712090;83;21022;-77
2022/06/09 09:56:22;;;;;;;2.22;1.35;;;;;;;39.65;16.38;98544.05;1712115;83;20971;-74
2022/06/09 09:58:55;;;;;;;4.58;1.80;;;;;;;39.15;16.96;98556.03;1712108;83;21587;-75
2022/06/09 10:01:27;;;;;;;2.47;1.60;;;;;;;38.30;17.27;98561.05;1712003;83;21148;-75
2022/06/09 10:09:49;;;;;;;2.92;1.90;;;;;;;35.27;19.94;98546.53;1712340;83;20971;-74
2022/06/09 10:12:26;;;;;;;1.90;1.70;;;;;;;34.95;20.50;98555.86;1711107;83;20943;-75
2022/06/09 10:15:04;;;;;;;2.75;1.72;;;;;;;34.80;20.81;98560.77;1711840;83;21199;-76
2022/06/09 10:17:49;;;;;;;2.52;1.80;;;;;;;34.70;20.46;98547.45;1711917;83;21042;-75
2022/06/09 10:20:27;;;;;;;2.98;1.90;;;;;;;34.53;20.92;98551.84;1712150;83;21458;-76
2022/06/09 10:23:13;;;;;;;7.40;2.08;;;;;;;34.26;20.99;98540.97;1712001;83;20994;-76
2022/06/09 10:25:51;;;;;;;2.60;2.15;;;;;;;34.09;21.35;98549.52;1711982;83;21010;-76
2022/06/09 10:28:32;;;;;;;4.78;2.10;;;;;;;33.90;21.45;98551.44;1712161;83;21203;-75
2022/06/09 10:31:16;;;;;;;6.75;2.25;;;;;;;33.67;22.08;98546.16;1711901;83;20895;-75
2022/06/09 10:33:51;;;;;;;3.95;2.00;;;;;;;33.47;22.08;98536.81;1711989;83;21002;-75
2022/06/09 10:36:22;;;;;;;2.20;2.00;;;;;;;33.35;21.61;98541.47;1712365;83;21494;-76
2022/06/09 10:38:57;;;;;;;2.62;2.40;;;;;;;33.09;21.63;98542.33;1711978;83;21072;-75
2022/06/09 10:41:42;;;;;;;2.93;2.17;;;;;;;32.85;21.13;98544.42;1709466;81;21188;-75
2022/06/09 10:44:14;;;;;;;4.50;1.95;;;;;;;32.69;22.05;98548.37;1706379;84;20975;-73
2022/06/09 10:55:14;;;;;;;2.67;2.27;;;;;;;32.51;21.97;98563.38;1706937;84;21032;-75
2022/06/09 10:55:26;;;;;;;4.83;2.25;;;;;;;32.07;23.23;98542.00;1706708;84;21553;-75
2022/06/09 10:58:13;;;;;;;4.33;2.58;;;;;;;32.01;22.65;98535.07;1706598;84;20935;-75
2022/06/09 11:00:45;;;;;;;2.92;2.60;;;;;;;32.00;22.79;98541.70;1706539;84;20955;-76
2022/06/09 11:03:26;;;;;;;3.20;2.62;;;;;;;31.87;22.99;98536.64;1706597;84;21884;-75
2022/06/09 11:06:24;;;;;;;3.45;2.27;;;;;;;31.76;23.14;98543.09;1706355;84;21517;-75
2022/06/09 11:09:09;;;;;;;5.58;2.95;;;;;;;31.62;23.93;98560.39;1706651;84;21286;-75
2022/06/09 11:12:17;;;;;;;3.47;2.37;;;;;;;31.44;23.46;98539.58;1706480;84;20951;-76
2022/06/09 11:15:19;;;;;;;7.57;2.37;;;;;;;31.31;24.03;98543.90;1706857;84;21577;-74
2022/06/09 11:18:28;;;;;;;4.30;2.30;;;;;;;31.33;23.60;98530.07;1706603;83;20998;-74
2022/06/09 11:21:15;;;;;;;3.45;2.37;;;;;;;31.43;24.21;98542.63;1706644;84;20979;-76
2022/06/09 11:24:17;;;;;;;3.15;2.50;;;;;;;31.45;23.28;98525.24;1706613;84;21566;-75
2022/06/09 11:26:55;;;;;;;2.77;2.58;;;;;;;31.44;24.16;98517.59;1706770;84;20947;-75
2022/06/09 11:30:01;;;;;;;2.50;2.12;;;;;;;31.39;23.58;98526.58;1706814;84;21543;-75
2022/06/09 11:32:54;;;;;;;4.70;2.60;;;;;;;31.26;23.48;98523.47;1706566;84;21430;-76
2022/06/09 11:35:45;;;;;;;4.95;3.05;;;;;;;31.17;24.21;98524.86;1706178;84;20935;-75
2022/06/09 11:38:34;;;;;;;4.30;2.30;;;;;;;31.14;23.60;98531.00;1706591;84;21208;-74
2022/06/09 11:41:33;;;;;;;4.40;2.30;;;;;;;31.11;24.08;98521.48;1709789;83;20947;-74
2022/06/09 11:44:08;;;;;;;2.75;2.17;;;;;;;31.11;23.85;98516.55;1719134;83;20947;-75
2022/06/09 11:46:37;;;;;;;3.40;2.55;;;;;;;31.15;24.25;98514.77;1720305;83;21437;-74
2022/06/09 11:49:13;;;;;;;3.17;2.47;;;;;;;31.18;24.39;98525.11;1720178;83;20934;-75
2022/06/09 11:51:39;;;;;;;4.00;2.30;;;;;;;31.23;24.08;98520.00;1719699;82;21201;-76
2022/06/09 11:54:10;;;;;;;5.97;2.45;;;;;;;31.27;24.15;98523.13;1719931;83;20975;-75
2022/06/09 11:56:43;;;;;;;2.37;2.10;;;;;;;31.23;23.79;98523.56;1719252;83;20907;-75
2022/06/09 11:59:19;;;;;;;5.25;2.62;;;;;;;31.18;24.35;98516.28;1720001;83;20978;-76
2022/06/09 12:02:23;;;;;;;3.90;1.92;;;;;;;31.16;23.94;98513.06;1720396;83;20985;-74
2022/06/09 12:05:13;;;;;;;3.15;1.98;;;;;;;31.09;23.30;98536.11;1719976;83;21290;-74
2022/06/09 12:07:59;;;;;;;3.50;2.30;;;;;;;30.95;23.27;98523.13;1719932;83;21499;-75
2022/06/09 12:10:45;;;;;;;2.58;2.35;;;;;;;30.85;24.52;98533.61;1719370;83;20895;-77
2022/06/09 12:13:23;;;;;;;3.92;2.42;;;;;;;30.78;24.29;98514.09;1712411;83;20974;-75
2022/06/09 12:15:59;;;;;;;2.67;2.47;;;;;;;30.73;25.03;98506.83;1688542;83;20934;-76
2022/06/09 12:18:42;;;;;;;4.95;1.95;;;;;;;30.72;24.69;98509.33;1720195;83;21906;-75